CheckWX is a tool to help pilots better visualize weather data.  It is not intended as a substitute for an official pre-flight weather briefing.

18:40:31 UTC

CYQA METAR
Muskoka Airport
Muskoka, Canada
Current

41 mins ago

CYQA 261800Z AUTO 30006G16KT 240V330 9SM CLR M00/M20 A3039 RMK SLP310
Observed
Mar-26 @ 18:00 UTC
Wind
  • 300° at 6 KTS
  • Gusting to 16 KTS
Visibility
9 SM
Flight Rules
VFR
Cloud Levels
  • Clear skies
Temperature
C / 32°F
Dewpoint
-20°C / -4°F
Humidity
21%
Altimeter
30.39" Hg
Pressure
1031 hPa
Previous

2 hours ago

CYQA 261700Z AUTO 32008G15KT 9SM CLR M01/M17 A3039 RMK SLP312
Observed
Mar-26 @ 17:00 UTC
Wind
  • 320° at 8 KTS
  • Gusting to 15 KTS
Visibility
9 SM
Flight Rules
VFR
Cloud Levels
  • Clear skies
Temperature
-1°C / 30°F
Dewpoint
-17°C / 1°F
Humidity
29%
Altimeter
30.39" Hg
Pressure
1031.2 hPa
Previous

3 hours ago

CYQA 261600Z AUTO 33007KT 240V350 9SM CLR M02/M17 A3041 RMK SLP316
Observed
Mar-26 @ 16:00 UTC
Wind
  • 330° at 7 KTS
Visibility
9 SM
Flight Rules
VFR
Cloud Levels
  • Clear skies
Temperature
-2°C / 28°F
Dewpoint
-17°C / 1°F
Humidity
31%
Altimeter
30.41" Hg
Pressure
1031.6 hPa